Terminal Aerodrome Forecast
Issued by NWS

Home | Current Version | Previous Version | Text Only | Print | Product List | Glossary On
Versions: 1 2 3 4 5 6 7 8 9 10 11 12 13 14 15 16
351
FTUS46 KLOX 170054 AAA
TAFPRB
TAF AMD
KPRB 170054Z 1701/1724 35012KT P6SM SKC
     FM170200 09006KT P6SM SKC
     FM170800 VRB03KT P6SM SKC
     FM171300 VRB03KT 6SM BR SCT004
     FM171700 34004KT P6SM SKC
     FM172300 11008KT P6SM SKC=

USA.gov is the U.S. government's official web portal to all federal, state and local government web resources and services.